sensor_id;sensor_type;location;lat;lon;timestamp;P1;durP1;ratioP1;P2;durP2;ratioP2
74616;SDS011;63123;50.906;4.198;2022-09-17T00:01:13;1.30;;;0.38;;
74616;SDS011;63123;50.906;4.198;2022-09-17T00:03:41;0.75;;;0.40;;
74616;SDS011;63123;50.906;4.198;2022-09-17T00:06:09;0.73;;;0.32;;
74616;SDS011;63123;50.906;4.198;2022-09-17T00:08:37;1.05;;;0.40;;
74616;SDS011;63123;50.906;4.198;2022-09-17T00:11:38;1.38;;;0.52;;
74616;SDS011;63123;50.906;4.198;2022-09-17T00:13:57;1.20;;;0.70;;
74616;SDS011;63123;50.906;4.198;2022-09-17T00:16:29;1.27;;;0.40;;
74616;SDS011;63123;50.906;4.198;2022-09-17T00:18:57;0.52;;;0.47;;
74616;SDS011;63123;50.906;4.198;2022-09-17T00:21:24;0.75;;;0.60;;
74616;SDS011;63123;50.906;4.198;2022-09-17T00:23:57;1.02;;;0.60;;
74616;SDS011;63123;50.906;4.198;2022-09-17T00:26:25;1.67;;;0.50;;
74616;SDS011;63123;50.906;4.198;2022-09-17T00:28:51;0.80;;;0.50;;
74616;SDS011;63123;50.906;4.198;2022-09-17T00:31:19;0.85;;;0.43;;
74616;SDS011;63123;50.906;4.198;2022-09-17T00:33:45;0.98;;;0.50;;
74616;SDS011;63123;50.906;4.198;2022-09-17T00:36:11;0.85;;;0.40;;
74616;SDS011;63123;50.906;4.198;2022-09-17T00:38:37;2.30;;;0.82;;
74616;SDS011;63123;50.906;4.198;2022-09-17T00:41:03;0.82;;;0.50;;
74616;SDS011;63123;50.906;4.198;2022-09-17T00:43:44;0.80;;;0.50;;
74616;SDS011;63123;50.906;4.198;2022-09-17T00:48:53;0.35;;;0.30;;
74616;SDS011;63123;50.906;4.198;2022-09-17T00:51:20;1.35;;;0.60;;
74616;SDS011;63123;50.906;4.198;2022-09-17T00:53:51;0.70;;;0.40;;
74616;SDS011;63123;50.906;4.198;2022-09-17T00:56:18;0.50;;;0.50;;
74616;SDS011;63123;50.906;4.198;2022-09-17T00:58:50;1.10;;;0.70;;
74616;SDS011;63123;50.906;4.198;2022-09-17T01:01:17;1.27;;;0.50;;
74616;SDS011;63123;50.906;4.198;2022-09-17T01:03:43;0.95;;;0.40;;
74616;SDS011;63123;50.906;4.198;2022-09-17T01:06:12;0.70;;;0.50;;
74616;SDS011;63123;50.906;4.198;2022-09-17T01:14:02;0.50;;;0.43;;
74616;SDS011;63123;50.906;4.198;2022-09-17T01:16:55;1.05;;;0.45;;
74616;SDS011;63123;50.906;4.198;2022-09-17T01:19:41;1.25;;;0.30;;
74616;SDS011;63123;50.906;4.198;2022-09-17T01:25:19;1.25;;;0.60;;
74616;SDS011;63123;50.906;4.198;2022-09-17T01:28:18;1.10;;;0.80;;
74616;SDS011;63123;50.906;4.198;2022-09-17T01:50:06;1.38;;;0.40;;
74616;SDS011;63123;50.906;4.198;2022-09-17T01:52:36;0.73;;;0.40;;
74616;SDS011;63123;50.906;4.198;2022-09-17T01:55:07;0.88;;;0.40;;
74616;SDS011;63123;50.906;4.198;2022-09-17T02:00:24;0.55;;;0.40;;
74616;SDS011;63123;50.906;4.198;2022-09-17T02:05:24;0.80;;;0.65;;
74616;SDS011;63123;50.906;4.198;2022-09-17T02:08:09;0.70;;;0.50;;
74616;SDS011;63123;50.906;4.198;2022-09-17T02:10:43;0.90;;;0.50;;
74616;SDS011;63123;50.906;4.198;2022-09-17T02:13:30;0.85;;;0.52;;
74616;SDS011;63123;50.906;4.198;2022-09-17T02:16:12;0.50;;;0.30;;
74616;SDS011;63123;50.906;4.198;2022-09-17T02:21:52;1.85;;;0.50;;
74616;SDS011;63123;50.906;4.198;2022-09-17T02:24:42;0.75;;;0.30;;
74616;SDS011;63123;50.906;4.198;2022-09-17T02:27:15;1.08;;;0.40;;
74616;SDS011;63123;50.906;4.198;2022-09-17T02:29:47;0.63;;;0.43;;
74616;SDS011;63123;50.906;4.198;2022-09-17T02:32:14;1.48;;;0.50;;
74616;SDS011;63123;50.906;4.198;2022-09-17T02:34:39;0.80;;;0.50;;
74616;SDS011;63123;50.906;4.198;2022-09-17T02:37:05;1.08;;;0.50;;
74616;SDS011;63123;50.906;4.198;2022-09-17T02:39:32;0.82;;;0.32;;
74616;SDS011;63123;50.906;4.198;2022-09-17T02:52:56;1.20;;;0.60;;
74616;SDS011;63123;50.906;4.198;2022-09-17T02:55:49;0.57;;;0.50;;
74616;SDS011;63123;50.906;4.198;2022-09-17T02:58:55;0.77;;;0.50;;
74616;SDS011;63123;50.906;4.198;2022-09-17T03:01:32;0.70;;;0.40;;
74616;SDS011;63123;50.906;4.198;2022-09-17T03:04:03;0.88;;;0.50;;
74616;SDS011;63123;50.906;4.198;2022-09-17T03:06:31;0.82;;;0.40;;
74616;SDS011;63123;50.906;4.198;2022-09-17T03:08:57;0.73;;;0.40;;
74616;SDS011;63123;50.906;4.198;2022-09-17T03:11:23;1.33;;;0.70;;
74616;SDS011;63123;50.906;4.198;2022-09-17T03:13:49;1.05;;;0.80;;
74616;SDS011;63123;50.906;4.198;2022-09-17T03:16:14;0.90;;;0.45;;
74616;SDS011;63123;50.906;4.198;2022-09-17T03:18:40;1.23;;;0.63;;
74616;SDS011;63123;50.906;4.198;2022-09-17T03:21:05;0.77;;;0.45;;
74616;SDS011;63123;50.906;4.198;2022-09-17T03:23:31;1.92;;;1.13;;
74616;SDS011;63123;50.906;4.198;2022-09-17T03:25:57;1.67;;;0.88;;
74616;SDS011;63123;50.906;4.198;2022-09-17T03:28:23;1.35;;;0.80;;
74616;SDS011;63123;50.906;4.198;2022-09-17T03:30:50;0.47;;;0.30;;
74616;SDS011;63123;50.906;4.198;2022-09-17T03:33:16;1.08;;;0.52;;
74616;SDS011;63123;50.906;4.198;2022-09-17T03:35:42;1.85;;;0.57;;
74616;SDS011;63123;50.906;4.198;2022-09-17T03:38:09;0.88;;;0.45;;
74616;SDS011;63123;50.906;4.198;2022-09-17T03:40:34;1.02;;;0.40;;
74616;SDS011;63123;50.906;4.198;2022-09-17T03:43:00;0.70;;;0.38;;
74616;SDS011;63123;50.906;4.198;2022-09-17T03:45:26;1.02;;;0.32;;
74616;SDS011;63123;50.906;4.198;2022-09-17T03:47:51;0.90;;;0.40;;
74616;SDS011;63123;50.906;4.198;2022-09-17T03:50:17;1.73;;;0.80;;
74616;SDS011;63123;50.906;4.198;2022-09-17T03:52:42;1.23;;;0.50;;
74616;SDS011;63123;50.906;4.198;2022-09-17T03:55:08;0.82;;;0.38;;
74616;SDS011;63123;50.906;4.198;2022-09-17T03:57:34;0.93;;;0.60;;
74616;SDS011;63123;50.906;4.198;2022-09-17T04:00:00;0.60;;;0.40;;
74616;SDS011;63123;50.906;4.198;2022-09-17T04:02:25;1.50;;;0.50;;
74616;SDS011;63123;50.906;4.198;2022-09-17T04:04:51;1.70;;;0.60;;
74616;SDS011;63123;50.906;4.198;2022-09-17T04:07:17;1.55;;;0.60;;
74616;SDS011;63123;50.906;4.198;2022-09-17T04:09:43;0.70;;;0.40;;
74616;SDS011;63123;50.906;4.198;2022-09-17T04:12:09;0.80;;;0.50;;
74616;SDS011;63123;50.906;4.198;2022-09-17T04:14:34;0.77;;;0.50;;
74616;SDS011;63123;50.906;4.198;2022-09-17T04:17:00;2.28;;;0.47;;
74616;SDS011;63123;50.906;4.198;2022-09-17T04:19:25;1.58;;;0.55;;
74616;SDS011;63123;50.906;4.198;2022-09-17T04:21:51;1.35;;;0.60;;
74616;SDS011;63123;50.906;4.198;2022-09-17T04:24:17;1.83;;;0.77;;
74616;SDS011;63123;50.906;4.198;2022-09-17T04:26:42;0.55;;;0.38;;
74616;SDS011;63123;50.906;4.198;2022-09-17T04:29:08;1.70;;;0.70;;
74616;SDS011;63123;50.906;4.198;2022-09-17T04:31:34;1.58;;;0.70;;
74616;SDS011;63123;50.906;4.198;2022-09-17T04:33:59;0.75;;;0.50;;
74616;SDS011;63123;50.906;4.198;2022-09-17T04:36:25;1.10;;;0.90;;
74616;SDS011;63123;50.906;4.198;2022-09-17T04:38:51;1.02;;;0.50;;
74616;SDS011;63123;50.906;4.198;2022-09-17T04:41:16;1.02;;;0.55;;
74616;SDS011;63123;50.906;4.198;2022-09-17T04:43:42;1.67;;;0.60;;
74616;SDS011;63123;50.906;4.198;2022-09-17T04:46:07;1.13;;;0.55;;
74616;SDS011;63123;50.906;4.198;2022-09-17T04:48:33;1.23;;;0.80;;
74616;SDS011;63123;50.906;4.198;2022-09-17T04:50:59;1.13;;;0.52;;
74616;SDS011;63123;50.906;4.198;2022-09-17T04:53:24;0.85;;;0.60;;
74616;SDS011;63123;50.906;4.198;2022-09-17T04:55:50;1.25;;;0.60;;
74616;SDS011;63123;50.906;4.198;2022-09-17T04:58:16;1.92;;;0.60;;
74616;SDS011;63123;50.906;4.198;2022-09-17T05:00:41;1.65;;;0.75;;
74616;SDS011;63123;50.906;4.198;2022-09-17T05:03:08;1.15;;;0.50;;
74616;SDS011;63123;50.906;4.198;2022-09-17T05:05:34;0.95;;;0.40;;
74616;SDS011;63123;50.906;4.198;2022-09-17T05:07:59;1.17;;;0.63;;
74616;SDS011;63123;50.906;4.198;2022-09-17T05:10:25;0.90;;;0.50;;
74616;SDS011;63123;50.906;4.198;2022-09-17T05:12:51;0.90;;;0.50;;
74616;SDS011;63123;50.906;4.198;2022-09-17T05:15:19;1.10;;;0.70;;
74616;SDS011;63123;50.906;4.198;2022-09-17T05:17:45;1.13;;;0.80;;
74616;SDS011;63123;50.906;4.198;2022-09-17T05:20:11;0.75;;;0.50;;
74616;SDS011;63123;50.906;4.198;2022-09-17T05:22:44;1.02;;;0.40;;
74616;SDS011;63123;50.906;4.198;2022-09-17T05:25:15;1.13;;;0.63;;
74616;SDS011;63123;50.906;4.198;2022-09-17T05:27:42;0.95;;;0.63;;
74616;SDS011;63123;50.906;4.198;2022-09-17T05:30:09;1.52;;;0.50;;
74616;SDS011;63123;50.906;4.198;2022-09-17T05:32:35;1.80;;;0.50;;
74616;SDS011;63123;50.906;4.198;2022-09-17T05:35:03;1.38;;;0.60;;
74616;SDS011;63123;50.906;4.198;2022-09-17T05:37:29;1.58;;;0.95;;
74616;SDS011;63123;50.906;4.198;2022-09-17T05:39:55;0.70;;;0.50;;
74616;SDS011;63123;50.906;4.198;2022-09-17T05:42:21;1.08;;;0.55;;
74616;SDS011;63123;50.906;4.198;2022-09-17T05:44:46;1.50;;;0.80;;
74616;SDS011;63123;50.906;4.198;2022-09-17T05:47:12;1.27;;;0.80;;
74616;SDS011;63123;50.906;4.198;2022-09-17T05:49:38;2.58;;;0.85;;
74616;SDS011;63123;50.906;4.198;2022-09-17T05:52:04;1.95;;;0.82;;
74616;SDS011;63123;50.906;4.198;2022-09-17T05:54:29;1.83;;;1.05;;
74616;SDS011;63123;50.906;4.198;2022-09-17T05:56:55;0.70;;;0.55;;
74616;SDS011;63123;50.906;4.198;2022-09-17T05:59:20;1.70;;;0.63;;
74616;SDS011;63123;50.906;4.198;2022-09-17T06:01:46;1.15;;;0.60;;
74616;SDS011;63123;50.906;4.198;2022-09-17T06:04:12;1.15;;;0.60;;
74616;SDS011;63123;50.906;4.198;2022-09-17T06:06:38;0.77;;;0.40;;
74616;SDS011;63123;50.906;4.198;2022-09-17T06:09:05;2.20;;;0.98;;
74616;SDS011;63123;50.906;4.198;2022-09-17T06:11:31;1.20;;;1.10;;
74616;SDS011;63123;50.906;4.198;2022-09-17T06:13:57;0.90;;;0.60;;
74616;SDS011;63123;50.906;4.198;2022-09-17T06:16:23;0.85;;;0.50;;
74616;SDS011;63123;50.906;4.198;2022-09-17T06:18:49;1.38;;;0.47;;
74616;SDS011;63123;50.906;4.198;2022-09-17T06:21:17;1.50;;;0.55;;
74616;SDS011;63123;50.906;4.198;2022-09-17T06:23:43;1.10;;;0.50;;
74616;SDS011;63123;50.906;4.198;2022-09-17T06:26:09;0.90;;;0.50;;
74616;SDS011;63123;50.906;4.198;2022-09-17T06:28:35;2.15;;;0.60;;
74616;SDS011;63123;50.906;4.198;2022-09-17T06:31:02;1.17;;;0.35;;
74616;SDS011;63123;50.906;4.198;2022-09-17T06:33:29;1.40;;;0.50;;
74616;SDS011;63123;50.906;4.198;2022-09-17T06:35:59;0.75;;;0.50;;
74616;SDS011;63123;50.906;4.198;2022-09-17T06:38:31;0.93;;;0.50;;
74616;SDS011;63123;50.906;4.198;2022-09-17T06:40:58;1.08;;;0.50;;
74616;SDS011;63123;50.906;4.198;2022-09-17T06:43:24;1.05;;;0.50;;
74616;SDS011;63123;50.906;4.198;2022-09-17T06:45:55;0.93;;;0.70;;
74616;SDS011;63123;50.906;4.198;2022-09-17T06:48:23;1.58;;;0.45;;
74616;SDS011;63123;50.906;4.198;2022-09-17T06:50:49;2.00;;;0.70;;
74616;SDS011;63123;50.906;4.198;2022-09-17T06:53:15;1.80;;;0.82;;
74616;SDS011;63123;50.906;4.198;2022-09-17T06:55:41;1.35;;;0.82;;
74616;SDS011;63123;50.906;4.198;2022-09-17T06:58:07;0.98;;;0.65;;
74616;SDS011;63123;50.906;4.198;2022-09-17T07:00:33;1.67;;;0.70;;
74616;SDS011;63123;50.906;4.198;2022-09-17T07:02:59;1.52;;;0.98;;
74616;SDS011;63123;50.906;4.198;2022-09-17T07:05:26;0.82;;;0.50;;
74616;SDS011;63123;50.906;4.198;2022-09-17T07:07:52;1.45;;;0.50;;
74616;SDS011;63123;50.906;4.198;2022-09-17T07:10:18;0.88;;;0.60;;
74616;SDS011;63123;50.906;4.198;2022-09-17T07:12:45;2.05;;;1.35;;
74616;SDS011;63123;50.906;4.198;2022-09-17T07:15:10;1.42;;;0.50;;
74616;SDS011;63123;50.906;4.198;2022-09-17T07:17:37;1.50;;;0.80;;
74616;SDS011;63123;50.906;4.198;2022-09-17T07:20:05;2.15;;;0.60;;
74616;SDS011;63123;50.906;4.198;2022-09-17T07:22:31;1.13;;;0.70;;
74616;SDS011;63123;50.906;4.198;2022-09-17T07:24:57;1.42;;;0.77;;
74616;SDS011;63123;50.906;4.198;2022-09-17T07:27:25;0.82;;;0.50;;
74616;SDS011;63123;50.906;4.198;2022-09-17T07:29:51;0.85;;;0.60;;
74616;SDS011;63123;50.906;4.198;2022-09-17T07:32:17;1.40;;;0.60;;
74616;SDS011;63123;50.906;4.198;2022-09-17T07:34:42;2.33;;;0.70;;
74616;SDS011;63123;50.906;4.198;2022-09-17T07:37:08;1.90;;;0.65;;
74616;SDS011;63123;50.906;4.198;2022-09-17T07:39:33;1.38;;;0.60;;
74616;SDS011;63123;50.906;4.198;2022-09-17T07:41:59;0.98;;;0.63;;
74616;SDS011;63123;50.906;4.198;2022-09-17T07:44:25;0.93;;;0.63;;
74616;SDS011;63123;50.906;4.198;2022-09-17T07:46:50;0.90;;;0.80;;
74616;SDS011;63123;50.906;4.198;2022-09-17T07:49:16;1.05;;;0.80;;
74616;SDS011;63123;50.906;4.198;2022-09-17T07:51:42;1.63;;;0.60;;
74616;SDS011;63123;50.906;4.198;2022-09-17T07:54:07;2.15;;;0.82;;
74616;SDS011;63123;50.906;4.198;2022-09-17T07:56:33;2.92;;;0.77;;
74616;SDS011;63123;50.906;4.198;2022-09-17T07:58:58;0.80;;;0.47;;
74616;SDS011;63123;50.906;4.198;2022-09-17T08:01:26;1.42;;;0.60;;
74616;SDS011;63123;50.906;4.198;2022-09-17T08:03:52;0.45;;;0.38;;
74616;SDS011;63123;50.906;4.198;2022-09-17T08:06:19;1.17;;;0.60;;
74616;SDS011;63123;50.906;4.198;2022-09-17T08:08:46;3.20;;;0.85;;
74616;SDS011;63123;50.906;4.198;2022-09-17T08:11:16;1.15;;;0.85;;
74616;SDS011;63123;50.906;4.198;2022-09-17T08:13:46;0.90;;;0.60;;
74616;SDS011;63123;50.906;4.198;2022-09-17T08:16:13;1.23;;;0.50;;
74616;SDS011;63123;50.906;4.198;2022-09-17T08:18:39;0.95;;;0.60;;
74616;SDS011;63123;50.906;4.198;2022-09-17T08:21:06;2.33;;;0.88;;
74616;SDS011;63123;50.906;4.198;2022-09-17T08:23:34;1.48;;;0.60;;
74616;SDS011;63123;50.906;4.198;2022-09-17T08:26:01;2.28;;;1.05;;
74616;SDS011;63123;50.906;4.198;2022-09-17T08:28:28;1.02;;;0.90;;
74616;SDS011;63123;50.906;4.198;2022-09-17T08:31:06;2.63;;;0.95;;
74616;SDS011;63123;50.906;4.198;2022-09-17T08:33:36;2.03;;;0.95;;
74616;SDS011;63123;50.906;4.198;2022-09-17T08:36:04;1.55;;;0.85;;
74616;SDS011;63123;50.906;4.198;2022-09-17T08:38:31;0.93;;;0.65;;
74616;SDS011;63123;50.906;4.198;2022-09-17T08:44:23;1.45;;;0.82;;
74616;SDS011;63123;50.906;4.198;2022-09-17T08:47:01;1.35;;;0.95;;
74616;SDS011;63123;50.906;4.198;2022-09-17T08:49:36;2.75;;;0.80;;
74616;SDS011;63123;50.906;4.198;2022-09-17T08:57:28;2.30;;;0.90;;
74616;SDS011;63123;50.906;4.198;2022-09-17T09:00:11;1.48;;;0.63;;
74616;SDS011;63123;50.906;4.198;2022-09-17T09:05:46;1.20;;;0.82;;
74616;SDS011;63123;50.906;4.198;2022-09-17T09:08:19;1.60;;;0.93;;
74616;SDS011;63123;50.906;4.198;2022-09-17T09:10:57;1.90;;;0.80;;
74616;SDS011;63123;50.906;4.198;2022-09-17T09:13:30;2.00;;;0.70;;
74616;SDS011;63123;50.906;4.198;2022-09-17T09:16:05;1.60;;;0.85;;
74616;SDS011;63123;50.906;4.198;2022-09-17T09:18:50;2.03;;;0.82;;
74616;SDS011;63123;50.906;4.198;2022-09-17T09:21:25;3.25;;;1.10;;
74616;SDS011;63123;50.906;4.198;2022-09-17T09:23:56;2.05;;;0.90;;
74616;SDS011;63123;50.906;4.198;2022-09-17T09:34:26;1.17;;;0.70;;
74616;SDS011;63123;50.906;4.198;2022-09-17T09:36:55;2.45;;;1.00;;
74616;SDS011;63123;50.906;4.198;2022-09-17T09:39:36;0.95;;;0.60;;
74616;SDS011;63123;50.906;4.198;2022-09-17T09:42:04;3.03;;;0.80;;
74616;SDS011;63123;50.906;4.198;2022-09-17T09:44:43;1.58;;;0.80;;
74616;SDS011;63123;50.906;4.198;2022-09-17T09:57:58;0.90;;;0.77;;
74616;SDS011;63123;50.906;4.198;2022-09-17T10:00:40;1.95;;;0.85;;
74616;SDS011;63123;50.906;4.198;2022-09-17T10:03:21;1.30;;;0.60;;
74616;SDS011;63123;50.906;4.198;2022-09-17T10:08:34;0.65;;;0.50;;
74616;SDS011;63123;50.906;4.198;2022-09-17T10:11:02;1.10;;;0.50;;
74616;SDS011;63123;50.906;4.198;2022-09-17T10:13:30;1.45;;;0.70;;
74616;SDS011;63123;50.906;4.198;2022-09-17T10:18:42;0.90;;;0.80;;
74616;SDS011;63123;50.906;4.198;2022-09-17T10:24:01;0.90;;;0.80;;
74616;SDS011;63123;50.906;4.198;2022-09-17T10:26:32;1.50;;;0.90;;
74616;SDS011;63123;50.906;4.198;2022-09-17T10:29:03;1.65;;;0.73;;
74616;SDS011;63123;50.906;4.198;2022-09-17T10:31:49;0.95;;;0.77;;
74616;SDS011;63123;50.906;4.198;2022-09-17T10:34:20;1.00;;;0.65;;
74616;SDS011;63123;50.906;4.198;2022-09-17T10:36:51;1.85;;;0.60;;
74616;SDS011;63123;50.906;4.198;2022-09-17T10:41:53;1.25;;;0.63;;
74616;SDS011;63123;50.906;4.198;2022-09-17T10:44:26;2.75;;;0.93;;
74616;SDS011;63123;50.906;4.198;2022-09-17T10:46:53;2.03;;;0.90;;
74616;SDS011;63123;50.906;4.198;2022-09-17T10:52:10;2.03;;;0.98;;
74616;SDS011;63123;50.906;4.198;2022-09-17T11:06:13;5.72;;;1.65;;
74616;SDS011;63123;50.906;4.198;2022-09-17T11:14:13;4.32;;;1.38;;
74616;SDS011;63123;50.906;4.198;2022-09-17T11:35:34;2.55;;;1.20;;
74616;SDS011;63123;50.906;4.198;2022-09-17T11:41:11;1.63;;;1.00;;
74616;SDS011;63123;50.906;4.198;2022-09-17T11:44:11;2.60;;;1.38;;
74616;SDS011;63123;50.906;4.198;2022-09-17T11:46:42;2.30;;;1.13;;
74616;SDS011;63123;50.906;4.198;2022-09-17T11:51:46;1.52;;;1.00;;
74616;SDS011;63123;50.906;4.198;2022-09-17T11:54:19;2.97;;;1.25;;
74616;SDS011;63123;50.906;4.198;2022-09-17T11:56:47;2.00;;;1.20;;
74616;SDS011;63123;50.906;4.198;2022-09-17T11:59:23;2.33;;;1.02;;
74616;SDS011;63123;50.906;4.198;2022-09-17T12:01:57;1.40;;;1.13;;
74616;SDS011;63123;50.906;4.198;2022-09-17T12:04:40;3.33;;;1.13;;
74616;SDS011;63123;50.906;4.198;2022-09-17T12:12:51;1.73;;;1.20;;
74616;SDS011;63123;50.906;4.198;2022-09-17T12:15:23;2.10;;;1.13;;
74616;SDS011;63123;50.906;4.198;2022-09-17T12:20:36;2.53;;;0.98;;
74616;SDS011;63123;50.906;4.198;2022-09-17T12:23:10;2.08;;;1.30;;
74616;SDS011;63123;50.906;4.198;2022-09-17T12:26:16;1.52;;;0.80;;
74616;SDS011;63123;50.906;4.198;2022-09-17T12:31:33;1.60;;;0.82;;
74616;SDS011;63123;50.906;4.198;2022-09-17T12:37:31;2.13;;;0.80;;
74616;SDS011;63123;50.906;4.198;2022-09-17T12:48:18;1.70;;;0.90;;
74616;SDS011;63123;50.906;4.198;2022-09-17T12:53:48;2.00;;;0.90;;
74616;SDS011;63123;50.906;4.198;2022-09-17T12:59:22;1.58;;;0.80;;
74616;SDS011;63123;50.906;4.198;2022-09-17T13:04:35;1.98;;;1.13;;
74616;SDS011;63123;50.906;4.198;2022-09-17T13:10:13;2.40;;;1.23;;
74616;SDS011;63123;50.906;4.198;2022-09-17T13:18:35;1.58;;;0.98;;
74616;SDS011;63123;50.906;4.198;2022-09-17T13:23:55;1.70;;;0.95;;
74616;SDS011;63123;50.906;4.198;2022-09-17T13:26:31;2.25;;;1.08;;
74616;SDS011;63123;50.906;4.198;2022-09-17T13:29:00;1.67;;;0.85;;
74616;SDS011;63123;50.906;4.198;2022-09-17T13:34:03;1.85;;;1.00;;
74616;SDS011;63123;50.906;4.198;2022-09-17T13:36:53;1.80;;;0.73;;
74616;SDS011;63123;50.906;4.198;2022-09-17T13:42:04;1.15;;;0.75;;
74616;SDS011;63123;50.906;4.198;2022-09-17T13:44:45;1.98;;;0.82;;
74616;SDS011;63123;50.906;4.198;2022-09-17T13:47:29;2.63;;;0.98;;
74616;SDS011;63123;50.906;4.198;2022-09-17T13:50:01;1.65;;;0.98;;
74616;SDS011;63123;50.906;4.198;2022-09-17T13:52:48;2.53;;;0.88;;
74616;SDS011;63123;50.906;4.198;2022-09-17T13:55:35;1.95;;;1.08;;
74616;SDS011;63123;50.906;4.198;2022-09-17T13:58:03;2.10;;;0.75;;
74616;SDS011;63123;50.906;4.198;2022-09-17T14:06:46;2.00;;;0.70;;
74616;SDS011;63123;50.906;4.198;2022-09-17T14:24:37;1.35;;;0.90;;
74616;SDS011;63123;50.906;4.198;2022-09-17T14:27:13;1.02;;;0.77;;
74616;SDS011;63123;50.906;4.198;2022-09-17T14:32:56;1.35;;;0.90;;
74616;SDS011;63123;50.906;4.198;2022-09-17T14:38:23;1.60;;;0.63;;
74616;SDS011;63123;50.906;4.198;2022-09-17T14:43:39;2.45;;;0.90;;
74616;SDS011;63123;50.906;4.198;2022-09-17T14:48:39;1.83;;;0.80;;
74616;SDS011;63123;50.906;4.198;2022-09-17T14:56:30;1.63;;;0.73;;
74616;SDS011;63123;50.906;4.198;2022-09-17T14:59:17;1.23;;;0.70;;
74616;SDS011;63123;50.906;4.198;2022-09-17T15:01:49;1.58;;;0.73;;
74616;SDS011;63123;50.906;4.198;2022-09-17T15:06:50;1.05;;;0.52;;
74616;SDS011;63123;50.906;4.198;2022-09-17T15:09:23;1.83;;;0.80;;
74616;SDS011;63123;50.906;4.198;2022-09-17T15:11:52;1.70;;;1.05;;
74616;SDS011;63123;50.906;4.198;2022-09-17T15:14:21;2.10;;;0.80;;
74616;SDS011;63123;50.906;4.198;2022-09-17T15:16:52;1.45;;;0.73;;
74616;SDS011;63123;50.906;4.198;2022-09-17T15:19:36;1.95;;;0.73;;
74616;SDS011;63123;50.906;4.198;2022-09-17T15:22:50;1.52;;;1.02;;
74616;SDS011;63123;50.906;4.198;2022-09-17T15:24:54;3.85;;;0.75;;
74616;SDS011;63123;50.906;4.198;2022-09-17T15:27:36;1.13;;;0.65;;
74616;SDS011;63123;50.906;4.198;2022-09-17T15:30:08;1.67;;;0.95;;
74616;SDS011;63123;50.906;4.198;2022-09-17T15:32:39;1.75;;;0.80;;
74616;SDS011;63123;50.906;4.198;2022-09-17T15:35:16;1.42;;;0.77;;
74616;SDS011;63123;50.906;4.198;2022-09-17T15:37:47;1.08;;;0.90;;
74616;SDS011;63123;50.906;4.198;2022-09-17T15:43:02;2.08;;;0.98;;
74616;SDS011;63123;50.906;4.198;2022-09-17T15:45:29;1.67;;;0.65;;
74616;SDS011;63123;50.906;4.198;2022-09-17T15:47:57;0.80;;;0.63;;
74616;SDS011;63123;50.906;4.198;2022-09-17T15:50:33;0.90;;;0.60;;
74616;SDS011;63123;50.906;4.198;2022-09-17T15:55:35;1.40;;;0.70;;
74616;SDS011;63123;50.906;4.198;2022-09-17T15:58:17;0.75;;;0.65;;
74616;SDS011;63123;50.906;4.198;2022-09-17T16:00:43;1.42;;;0.57;;
74616;SDS011;63123;50.906;4.198;2022-09-17T16:05:59;1.42;;;0.52;;
74616;SDS011;63123;50.906;4.198;2022-09-17T16:08:25;1.55;;;0.60;;
74616;SDS011;63123;50.906;4.198;2022-09-17T16:10:58;1.63;;;1.02;;
74616;SDS011;63123;50.906;4.198;2022-09-17T16:13:24;0.80;;;0.50;;
74616;SDS011;63123;50.906;4.198;2022-09-17T16:15:49;1.95;;;0.88;;
74616;SDS011;63123;50.906;4.198;2022-09-17T16:18:15;1.13;;;0.70;;
74616;SDS011;63123;50.906;4.198;2022-09-17T16:20:40;2.05;;;0.68;;
74616;SDS011;63123;50.906;4.198;2022-09-17T16:23:06;0.93;;;0.60;;
74616;SDS011;63123;50.906;4.198;2022-09-17T16:25:32;1.15;;;0.70;;
74616;SDS011;63123;50.906;4.198;2022-09-17T16:27:58;0.75;;;0.55;;
74616;SDS011;63123;50.906;4.198;2022-09-17T16:30:27;1.73;;;0.57;;
74616;SDS011;63123;50.906;4.198;2022-09-17T16:32:52;1.10;;;0.60;;
74616;SDS011;63123;50.906;4.198;2022-09-17T16:35:19;1.50;;;0.60;;
74616;SDS011;63123;50.906;4.198;2022-09-17T16:37:47;1.15;;;0.68;;
74616;SDS011;63123;50.906;4.198;2022-09-17T16:40:13;1.20;;;0.52;;
74616;SDS011;63123;50.906;4.198;2022-09-17T16:42:39;1.55;;;0.70;;
74616;SDS011;63123;50.906;4.198;2022-09-17T16:45:05;2.58;;;0.70;;
74616;SDS011;63123;50.906;4.198;2022-09-17T16:47:37;3.38;;;1.17;;
74616;SDS011;63123;50.906;4.198;2022-09-17T16:50:05;1.50;;;0.80;;
74616;SDS011;63123;50.906;4.198;2022-09-17T16:52:33;0.80;;;0.75;;
74616;SDS011;63123;50.906;4.198;2022-09-17T16:54:59;1.45;;;0.75;;
74616;SDS011;63123;50.906;4.198;2022-09-17T16:57:26;2.30;;;0.90;;
74616;SDS011;63123;50.906;4.198;2022-09-17T16:59:51;1.58;;;0.80;;
74616;SDS011;63123;50.906;4.198;2022-09-17T17:02:17;1.02;;;0.57;;
74616;SDS011;63123;50.906;4.198;2022-09-17T17:04:43;1.90;;;0.70;;
74616;SDS011;63123;50.906;4.198;2022-09-17T17:07:08;0.80;;;0.60;;
74616;SDS011;63123;50.906;4.198;2022-09-17T17:09:34;1.27;;;0.85;;
74616;SDS011;63123;50.906;4.198;2022-09-17T17:11:59;1.75;;;0.70;;
74616;SDS011;63123;50.906;4.198;2022-09-17T17:14:25;1.17;;;0.70;;
74616;SDS011;63123;50.906;4.198;2022-09-17T17:16:51;1.08;;;0.63;;
74616;SDS011;63123;50.906;4.198;2022-09-17T17:19:16;1.52;;;0.80;;
74616;SDS011;63123;50.906;4.198;2022-09-17T17:21:42;0.93;;;0.65;;
74616;SDS011;63123;50.906;4.198;2022-09-17T17:24:07;0.98;;;0.60;;
74616;SDS011;63123;50.906;4.198;2022-09-17T17:26:34;1.30;;;0.68;;
74616;SDS011;63123;50.906;4.198;2022-09-17T17:29:00;0.95;;;0.60;;
74616;SDS011;63123;50.906;4.198;2022-09-17T17:31:27;1.25;;;0.98;;
74616;SDS011;63123;50.906;4.198;2022-09-17T17:33:52;1.27;;;0.60;;
74616;SDS011;63123;50.906;4.198;2022-09-17T17:36:18;1.65;;;0.70;;
74616;SDS011;63123;50.906;4.198;2022-09-17T17:38:44;2.22;;;0.88;;
74616;SDS011;63123;50.906;4.198;2022-09-17T17:41:10;2.38;;;0.70;;
74616;SDS011;63123;50.906;4.198;2022-09-17T17:43:37;1.40;;;0.73;;
74616;SDS011;63123;50.906;4.198;2022-09-17T17:46:06;2.10;;;1.00;;
74616;SDS011;63123;50.906;4.198;2022-09-17T17:48:34;1.10;;;0.85;;
74616;SDS011;63123;50.906;4.198;2022-09-17T17:51:03;2.13;;;0.82;;
74616;SDS011;63123;50.906;4.198;2022-09-17T17:53:30;3.00;;;1.60;;
74616;SDS011;63123;50.906;4.198;2022-09-17T17:55:57;4.25;;;1.90;;
74616;SDS011;63123;50.906;4.198;2022-09-17T17:58:24;3.17;;;2.03;;
74616;SDS011;63123;50.906;4.198;2022-09-17T18:00:50;3.17;;;2.15;;
74616;SDS011;63123;50.906;4.198;2022-09-17T18:03:16;6.75;;;3.75;;
74616;SDS011;63123;50.906;4.198;2022-09-17T18:05:41;7.45;;;4.00;;
74616;SDS011;63123;50.906;4.198;2022-09-17T18:08:07;7.63;;;3.97;;
74616;SDS011;63123;50.906;4.198;2022-09-17T18:10:32;9.45;;;4.13;;
74616;SDS011;63123;50.906;4.198;2022-09-17T18:12:58;7.95;;;3.65;;
74616;SDS011;63123;50.906;4.198;2022-09-17T18:15:23;8.82;;;4.20;;
74616;SDS011;63123;50.906;4.198;2022-09-17T18:17:49;9.55;;;4.90;;
74616;SDS011;63123;50.906;4.198;2022-09-17T18:20:17;6.30;;;4.10;;
74616;SDS011;63123;50.906;4.198;2022-09-17T18:22:43;9.35;;;5.68;;
74616;SDS011;63123;50.906;4.198;2022-09-17T18:25:09;9.20;;;4.47;;
74616;SDS011;63123;50.906;4.198;2022-09-17T18:27:34;9.10;;;5.78;;
74616;SDS011;63123;50.906;4.198;2022-09-17T18:30:00;8.98;;;5.82;;
74616;SDS011;63123;50.906;4.198;2022-09-17T18:32:25;10.18;;;5.45;;
74616;SDS011;63123;50.906;4.198;2022-09-17T18:34:52;8.32;;;5.38;;
74616;SDS011;63123;50.906;4.198;2022-09-17T18:37:17;9.75;;;5.95;;
74616;SDS011;63123;50.906;4.198;2022-09-17T18:39:43;9.55;;;4.95;;
74616;SDS011;63123;50.906;4.198;2022-09-17T18:42:08;7.90;;;5.05;;
74616;SDS011;63123;50.906;4.198;2022-09-17T18:44:34;11.77;;;5.35;;
74616;SDS011;63123;50.906;4.198;2022-09-17T18:46:59;8.98;;;5.25;;
74616;SDS011;63123;50.906;4.198;2022-09-17T18:49:25;8.32;;;4.97;;
74616;SDS011;63123;50.906;4.198;2022-09-17T18:51:51;11.95;;;5.63;;
74616;SDS011;63123;50.906;4.198;2022-09-17T18:54:16;8.25;;;4.70;;